sensor_id;sensor_type;location;lat;lon;timestamp;pressure;altitude;pressure_sealevel;temperature;humidity
22283;BME280;11310;51.528;21.204;2024-01-15T00:00:48;97985.16;;;1.32;100.00
22283;BME280;11310;51.528;21.204;2024-01-15T00:03:18;97984.19;;;1.35;100.00
22283;BME280;11310;51.528;21.204;2024-01-15T00:05:46;97978.38;;;1.30;100.00
22283;BME280;11310;51.528;21.204;2024-01-15T00:08:16;97985.38;;;1.28;100.00
22283;BME280;11310;51.528;21.204;2024-01-15T00:10:44;97982.91;;;1.25;100.00
22283;BME280;11310;51.528;21.204;2024-01-15T00:13:13;97976.97;;;1.23;100.00
22283;BME280;11310;51.528;21.204;2024-01-15T00:15:42;97964.06;;;1.23;100.00
22283;BME280;11310;51.528;21.204;2024-01-15T00:18:13;97962.41;;;1.22;100.00
22283;BME280;11310;51.528;21.204;2024-01-15T00:20:44;97958.13;;;1.21;100.00
22283;BME280;11310;51.528;21.204;2024-01-15T00:23:12;97955.41;;;1.24;100.00
22283;BME280;11310;51.528;21.204;2024-01-15T00:25:41;97945.09;;;1.24;100.00
22283;BME280;11310;51.528;21.204;2024-01-15T00:28:09;97946.75;;;1.25;100.00
22283;BME280;11310;51.528;21.204;2024-01-15T00:30:39;97946.91;;;1.22;100.00
22283;BME280;11310;51.528;21.204;2024-01-15T00:33:07;97936.59;;;1.22;100.00
22283;BME280;11310;51.528;21.204;2024-01-15T00:35:39;97935.78;;;1.20;100.00
22283;BME280;11310;51.528;21.204;2024-01-15T00:38:10;97935.03;;;1.18;100.00
22283;BME280;11310;51.528;21.204;2024-01-15T00:40:39;97930.69;;;1.18;100.00
22283;BME280;11310;51.528;21.204;2024-01-15T00:43:09;97924.69;;;1.18;100.00
22283;BME280;11310;51.528;21.204;2024-01-15T00:45:41;97920.41;;;1.17;100.00
22283;BME280;11310;51.528;21.204;2024-01-15T00:48:09;97917.84;;;1.17;100.00
22283;BME280;11310;51.528;21.204;2024-01-15T00:50:40;97911.97;;;1.13;100.00
22283;BME280;11310;51.528;21.204;2024-01-15T00:53:12;97898.31;;;1.11;100.00
22283;BME280;11310;51.528;21.204;2024-01-15T00:55:42;97907.59;;;1.15;100.00
22283;BME280;11310;51.528;21.204;2024-01-15T00:58:11;97905.91;;;1.14;100.00
22283;BME280;11310;51.528;21.204;2024-01-15T01:00:45;97906.00;;;1.13;100.00
22283;BME280;11310;51.528;21.204;2024-01-15T01:03:14;97904.22;;;1.13;100.00
22283;BME280;11310;51.528;21.204;2024-01-15T01:05:43;97891.38;;;1.12;100.00
22283;BME280;11310;51.528;21.204;2024-01-15T01:08:14;97890.50;;;1.13;100.00
22283;BME280;11310;51.528;21.204;2024-01-15T01:10:43;97880.19;;;1.13;100.00
22283;BME280;11310;51.528;21.204;2024-01-15T01:13:12;97879.28;;;1.14;100.00
22283;BME280;11310;51.528;21.204;2024-01-15T01:15:42;97876.69;;;1.14;100.00
22283;BME280;11310;51.528;21.204;2024-01-15T01:18:15;97883.53;;;1.15;100.00
22283;BME280;11310;51.528;21.204;2024-01-15T01:20:47;97875.78;;;1.15;100.00
22283;BME280;11310;51.528;21.204;2024-01-15T01:23:21;97868.94;;;1.14;100.00
22283;BME280;11310;51.528;21.204;2024-01-15T01:25:49;97864.81;;;1.10;100.00
22283;BME280;11310;51.528;21.204;2024-01-15T01:28:16;97864.81;;;1.10;100.00
22283;BME280;11310;51.528;21.204;2024-01-15T01:30:47;97858.09;;;1.06;100.00
22283;BME280;11310;51.528;21.204;2024-01-15T01:33:19;97849.59;;;1.04;100.00
22283;BME280;11310;51.528;21.204;2024-01-15T01:35:48;97846.16;;;1.03;100.00
22283;BME280;11310;51.528;21.204;2024-01-15T01:38:16;97851.38;;;1.02;100.00
22283;BME280;11310;51.528;21.204;2024-01-15T01:40:46;97852.38;;;0.99;100.00
22283;BME280;11310;51.528;21.204;2024-01-15T01:43:15;97856.63;;;1.00;100.00
22283;BME280;11310;51.528;21.204;2024-01-15T01:45:43;97853.22;;;1.00;100.00
22283;BME280;11310;51.528;21.204;2024-01-15T01:48:13;97839.13;;;1.07;100.00
22283;BME280;11310;51.528;21.204;2024-01-15T01:50:42;97842.34;;;1.12;100.00
22283;BME280;11310;51.528;21.204;2024-01-15T01:53:10;97842.50;;;1.09;100.00
22283;BME280;11310;51.528;21.204;2024-01-15T01:55:39;97844.28;;;1.07;100.00
22283;BME280;11310;51.528;21.204;2024-01-15T01:58:09;97829.72;;;1.06;100.00
22283;BME280;11310;51.528;21.204;2024-01-15T02:00:37;97830.50;;;1.08;100.00
22283;BME280;11310;51.528;21.204;2024-01-15T02:03:09;97829.66;;;1.07;100.00
22283;BME280;11310;51.528;21.204;2024-01-15T02:05:39;97826.28;;;1.05;100.00
22283;BME280;11310;51.528;21.204;2024-01-15T02:08:08;97832.41;;;1.03;100.00
22283;BME280;11310;51.528;21.204;2024-01-15T02:10:37;97828.75;;;1.08;100.00
22283;BME280;11310;51.528;21.204;2024-01-15T02:13:05;97820.03;;;1.11;100.00
22283;BME280;11310;51.528;21.204;2024-01-15T02:15:36;97823.41;;;1.13;100.00
22283;BME280;11310;51.528;21.204;2024-01-15T02:18:06;97807.91;;;1.13;100.00
22283;BME280;11310;51.528;21.204;2024-01-15T02:20:36;97808.78;;;1.12;100.00
22283;BME280;11310;51.528;21.204;2024-01-15T02:23:08;97804.53;;;1.11;100.00
22283;BME280;11310;51.528;21.204;2024-01-15T02:25:40;97806.19;;;1.12;100.00
22283;BME280;11310;51.528;21.204;2024-01-15T02:28:11;97801.03;;;1.12;100.00
22283;BME280;11310;51.528;21.204;2024-01-15T02:30:43;97796.66;;;1.14;100.00
22283;BME280;11310;51.528;21.204;2024-01-15T02:33:12;97788.94;;;1.14;100.00
22283;BME280;11310;51.528;21.204;2024-01-15T02:35:42;97791.44;;;1.15;100.00
22283;BME280;11310;51.528;21.204;2024-01-15T02:38:18;97776.03;;;1.14;100.00
22283;BME280;11310;51.528;21.204;2024-01-15T02:40:49;97788.84;;;1.15;100.00
22283;BME280;11310;51.528;21.204;2024-01-15T02:43:17;97791.28;;;1.18;100.00
22283;BME280;11310;51.528;21.204;2024-01-15T02:45:46;97786.13;;;1.18;100.00
22283;BME280;11310;51.528;21.204;2024-01-15T02:48:15;97777.56;;;1.18;100.00
22283;BME280;11310;51.528;21.204;2024-01-15T02:50:44;97776.66;;;1.19;100.00
22283;BME280;11310;51.528;21.204;2024-01-15T02:53:11;97772.34;;;1.19;100.00
22283;BME280;11310;51.528;21.204;2024-01-15T02:55:41;97768.00;;;1.20;100.00
22283;BME280;11310;51.528;21.204;2024-01-15T02:58:14;97767.16;;;1.19;100.00
22283;BME280;11310;51.528;21.204;2024-01-15T03:00:42;97758.63;;;1.17;100.00
22283;BME280;11310;51.528;21.204;2024-01-15T03:03:11;97756.13;;;1.16;100.00
22283;BME280;11310;51.528;21.204;2024-01-15T03:05:40;97761.28;;;1.16;100.00
22283;BME280;11310;51.528;21.204;2024-01-15T03:08:09;97752.63;;;1.17;100.00
22283;BME280;11310;51.528;21.204;2024-01-15T03:10:37;97745.78;;;1.16;100.00
22283;BME280;11310;51.528;21.204;2024-01-15T03:13:06;97751.88;;;1.15;100.00
22283;BME280;11310;51.528;21.204;2024-01-15T03:15:35;97739.09;;;1.12;100.00
22283;BME280;11310;51.528;21.204;2024-01-15T03:18:03;97731.22;;;1.15;100.00
22283;BME280;11310;51.528;21.204;2024-01-15T03:20:32;97726.00;;;1.16;100.00
22283;BME280;11310;51.528;21.204;2024-01-15T03:23:00;97721.53;;;1.20;100.00
22283;BME280;11310;51.528;21.204;2024-01-15T03:25:28;97711.97;;;1.22;100.00
22283;BME280;11310;51.528;21.204;2024-01-15T03:27:57;97702.53;;;1.21;100.00
22283;BME280;11310;51.528;21.204;2024-01-15T03:30:26;97697.38;;;1.21;100.00
22283;BME280;11310;51.528;21.204;2024-01-15T03:32:55;97693.06;;;1.21;100.00
22283;BME280;11310;51.528;21.204;2024-01-15T03:35:23;97687.91;;;1.21;100.00
22283;BME280;11310;51.528;21.204;2024-01-15T03:37:56;97690.53;;;1.20;100.00
22283;BME280;11310;51.528;21.204;2024-01-15T03:40:24;97681.00;;;1.22;100.00
22283;BME280;11310;51.528;21.204;2024-01-15T03:42:53;97692.94;;;1.24;100.00
22283;BME280;11310;51.528;21.204;2024-01-15T03:45:22;97686.78;;;1.27;100.00
22283;BME280;11310;51.528;21.204;2024-01-15T03:47:52;97685.19;;;1.24;100.00
22283;BME280;11310;51.528;21.204;2024-01-15T03:50:20;97683.41;;;1.25;100.00
22283;BME280;11310;51.528;21.204;2024-01-15T03:52:50;97687.66;;;1.26;100.00
22283;BME280;11310;51.528;21.204;2024-01-15T03:55:18;97684.28;;;1.25;100.00
22283;BME280;11310;51.528;21.204;2024-01-15T03:57:46;97678.25;;;1.25;100.00
22283;BME280;11310;51.528;21.204;2024-01-15T04:00:15;97686.78;;;1.27;100.00
22283;BME280;11310;51.528;21.204;2024-01-15T04:02:44;97683.28;;;1.28;100.00
22283;BME280;11310;51.528;21.204;2024-01-15T04:05:14;97685.88;;;1.28;100.00
22283;BME280;11310;51.528;21.204;2024-01-15T04:07:42;97676.47;;;1.27;100.00
22283;BME280;11310;51.528;21.204;2024-01-15T04:10:10;97662.63;;;1.28;100.00
22283;BME280;11310;51.528;21.204;2024-01-15T04:12:39;97651.41;;;1.29;100.00
22283;BME280;11310;51.528;21.204;2024-01-15T04:15:08;97654.91;;;1.28;100.00
22283;BME280;11310;51.528;21.204;2024-01-15T04:17:36;97652.25;;;1.29;100.00
22283;BME280;11310;51.528;21.204;2024-01-15T04:20:05;97659.00;;;1.32;100.00
22283;BME280;11310;51.528;21.204;2024-01-15T04:22:35;97668.41;;;1.33;100.00
22283;BME280;11310;51.528;21.204;2024-01-15T04:25:04;97655.44;;;1.34;100.00
22283;BME280;11310;51.528;21.204;2024-01-15T04:27:36;97647.75;;;1.33;100.00
22283;BME280;11310;51.528;21.204;2024-01-15T04:30:05;97639.34;;;1.29;100.00
22283;BME280;11310;51.528;21.204;2024-01-15T04:32:33;97641.84;;;1.31;100.00
22283;BME280;11310;51.528;21.204;2024-01-15T04:35:05;97641.84;;;1.31;100.00
22283;BME280;11310;51.528;21.204;2024-01-15T04:37:34;97635.78;;;1.32;100.00
22283;BME280;11310;51.528;21.204;2024-01-15T04:40:03;97638.34;;;1.32;100.00
22283;BME280;11310;51.528;21.204;2024-01-15T04:42:31;97630.53;;;1.33;100.00
22283;BME280;11310;51.528;21.204;2024-01-15T04:45:00;97626.34;;;1.31;100.00
22283;BME280;11310;51.528;21.204;2024-01-15T04:47:28;97626.19;;;1.34;100.00
22283;BME280;11310;51.528;21.204;2024-01-15T04:49:59;97629.63;;;1.34;100.00
22283;BME280;11310;51.528;21.204;2024-01-15T04:52:27;97621.94;;;1.33;100.00
22283;BME280;11310;51.528;21.204;2024-01-15T04:54:57;97617.69;;;1.32;100.00
22283;BME280;11310;51.528;21.204;2024-01-15T04:57:25;97621.19;;;1.31;100.00
22283;BME280;11310;51.528;21.204;2024-01-15T04:59:54;97610.00;;;1.30;100.00
22283;BME280;11310;51.528;21.204;2024-01-15T05:02:22;97608.19;;;1.32;100.00
22283;BME280;11310;51.528;21.204;2024-01-15T05:04:51;97615.94;;;1.32;100.00
22283;BME280;11310;51.528;21.204;2024-01-15T05:07:19;97615.13;;;1.32;100.00
22283;BME280;11310;51.528;21.204;2024-01-15T05:09:48;97608.28;;;1.31;100.00
22283;BME280;11310;51.528;21.204;2024-01-15T05:12:18;97601.53;;;1.28;100.00
22283;BME280;11310;51.528;21.204;2024-01-15T05:14:46;97595.44;;;1.29;100.00
22283;BME280;11310;51.528;21.204;2024-01-15T05:17:14;97603.31;;;1.26;100.00
22283;BME280;11310;51.528;21.204;2024-01-15T05:19:42;97600.97;;;1.22;100.00
22283;BME280;11310;51.528;21.204;2024-01-15T05:22:12;97607.03;;;1.21;100.00
22283;BME280;11310;51.528;21.204;2024-01-15T05:24:40;97599.59;;;1.15;100.00
22283;BME280;11310;51.528;21.204;2024-01-15T05:27:12;97604.81;;;1.13;100.00
22283;BME280;11310;51.528;21.204;2024-01-15T05:29:42;97602.28;;;1.12;100.00
22283;BME280;11310;51.528;21.204;2024-01-15T05:32:12;97598.06;;;1.11;100.00
22283;BME280;11310;51.528;21.204;2024-01-15T05:34:42;97599.03;;;1.08;100.00
22283;BME280;11310;51.528;21.204;2024-01-15T05:37:11;97604.25;;;1.07;100.00
22283;BME280;11310;51.528;21.204;2024-01-15T05:39:40;97604.31;;;1.05;100.00
22283;BME280;11310;51.528;21.204;2024-01-15T05:42:09;97601.06;;;1.02;100.00
22283;BME280;11310;51.528;21.204;2024-01-15T05:44:37;97599.53;;;0.98;100.00
22283;BME280;11310;51.528;21.204;2024-01-15T05:47:07;97594.72;;;0.90;100.00
22283;BME280;11310;51.528;21.204;2024-01-15T05:49:37;97590.41;;;0.91;100.00
22283;BME280;11310;51.528;21.204;2024-01-15T05:52:10;97593.00;;;0.91;100.00
22283;BME280;11310;51.528;21.204;2024-01-15T05:54:38;97587.84;;;0.91;100.00
22283;BME280;11310;51.528;21.204;2024-01-15T05:57:06;97586.06;;;0.91;100.00
22283;BME280;11310;51.528;21.204;2024-01-15T05:59:34;97578.44;;;0.90;100.00
22283;BME280;11310;51.528;21.204;2024-01-15T06:02:04;97581.75;;;0.92;100.00
22283;BME280;11310;51.528;21.204;2024-01-15T06:04:33;97588.59;;;0.93;100.00
22283;BME280;11310;51.528;21.204;2024-01-15T06:07:02;97589.31;;;0.96;100.00
22283;BME280;11310;51.528;21.204;2024-01-15T06:09:30;97582.31;;;0.98;100.00
22283;BME280;11310;51.528;21.204;2024-01-15T06:11:59;97595.00;;;1.03;100.00
22283;BME280;11310;51.528;21.204;2024-01-15T06:14:27;97588.16;;;1.02;100.00
22283;BME280;11310;51.528;21.204;2024-01-15T06:16:56;97598.41;;;1.03;100.00
22283;BME280;11310;51.528;21.204;2024-01-15T06:19:24;97594.25;;;1.01;100.00
22283;BME280;11310;51.528;21.204;2024-01-15T06:21:57;97590.13;;;0.97;100.00
22283;BME280;11310;51.528;21.204;2024-01-15T06:24:26;97588.59;;;0.93;100.00
22283;BME280;11310;51.528;21.204;2024-01-15T06:26:54;97592.22;;;0.89;100.00
22283;BME280;11310;51.528;21.204;2024-01-15T06:29:26;97588.88;;;0.87;100.00
22283;BME280;11310;51.528;21.204;2024-01-15T06:31:57;97594.03;;;0.87;100.00
22283;BME280;11310;51.528;21.204;2024-01-15T06:34:25;97582.81;;;0.88;100.00
22283;BME280;11310;51.528;21.204;2024-01-15T06:36:54;97585.41;;;0.88;100.00
22283;BME280;11310;51.528;21.204;2024-01-15T06:39:23;97581.09;;;0.88;100.00
22283;BME280;11310;51.528;21.204;2024-01-15T06:41:52;97578.44;;;0.90;100.00
22283;BME280;11310;51.528;21.204;2024-01-15T06:44:21;97578.50;;;0.88;100.00
22283;BME280;11310;51.528;21.204;2024-01-15T06:46:52;97577.59;;;0.89;100.00
22283;BME280;11310;51.528;21.204;2024-01-15T06:49:24;97578.50;;;0.88;100.00
22283;BME280;11310;51.528;21.204;2024-01-15T06:51:52;97575.84;;;0.90;100.00
22283;BME280;11310;51.528;21.204;2024-01-15T06:54:23;97580.09;;;0.91;100.00
22283;BME280;11310;51.528;21.204;2024-01-15T06:56:53;97568.25;;;0.87;100.00
22283;BME280;11310;51.528;21.204;2024-01-15T06:59:26;97566.59;;;0.86;100.00
22283;BME280;11310;51.528;21.204;2024-01-15T07:01:58;97569.91;;;0.88;100.00
22283;BME280;11310;51.528;21.204;2024-01-15T07:04:27;97583.66;;;0.88;100.00
22283;BME280;11310;51.528;21.204;2024-01-15T07:06:56;97580.38;;;0.85;100.00
22283;BME280;11310;51.528;21.204;2024-01-15T07:09:28;97589.00;;;0.84;100.00
22283;BME280;11310;51.528;21.204;2024-01-15T07:11:58;97585.47;;;0.86;100.00
22283;BME280;11310;51.528;21.204;2024-01-15T07:14:26;97592.22;;;0.89;100.00
22283;BME280;11310;51.528;21.204;2024-01-15T07:16:54;97595.72;;;0.88;100.00
22283;BME280;11310;51.528;21.204;2024-01-15T07:19:22;97587.84;;;0.91;100.00
22283;BME280;11310;51.528;21.204;2024-01-15T07:21:54;97586.19;;;0.90;100.00
22283;BME280;11310;51.528;21.204;2024-01-15T07:24:23;97581.75;;;0.92;100.00
22283;BME280;11310;51.528;21.204;2024-01-15T07:26:55;97585.09;;;0.94;100.00
22283;BME280;11310;51.528;21.204;2024-01-15T07:29:23;97580.66;;;0.97;100.00
22283;BME280;11310;51.528;21.204;2024-01-15T07:31:52;97588.16;;;1.02;100.00
22283;BME280;11310;51.528;21.204;2024-01-15T07:34:20;97593.31;;;1.02;100.00
22283;BME280;11310;51.528;21.204;2024-01-15T07:36:49;97581.34;;;1.01;100.00
22283;BME280;11310;51.528;21.204;2024-01-15T07:39:17;97583.84;;;1.02;100.00
22283;BME280;11310;51.528;21.204;2024-01-15T07:41:45;97588.03;;;1.05;100.00
22283;BME280;11310;51.528;21.204;2024-01-15T07:44:16;97588.78;;;1.07;100.00
22283;BME280;11310;51.528;21.204;2024-01-15T07:46:47;97592.06;;;1.10;100.00
22283;BME280;11310;51.528;21.204;2024-01-15T07:49:17;97583.34;;;1.13;100.00
22283;BME280;11310;51.528;21.204;2024-01-15T07:51:46;97590.19;;;1.14;100.00
22283;BME280;11310;51.528;21.204;2024-01-15T07:54:15;97583.97;;;1.18;100.00
22283;BME280;11310;51.528;21.204;2024-01-15T07:56:55;97575.16;;;1.22;100.00
22283;BME280;11310;51.528;21.204;2024-01-15T07:59:28;97585.31;;;1.25;100.00
22283;BME280;11310;51.528;21.204;2024-01-15T08:01:58;97578.34;;;1.27;100.00
22283;BME280;11310;51.528;21.204;2024-01-15T08:04:28;97574.84;;;1.28;100.00
22283;BME280;11310;51.528;21.204;2024-01-15T08:06:57;97574.19;;;1.24;100.00
22283;BME280;11310;51.528;21.204;2024-01-15T08:09:25;97572.41;;;1.25;100.00
22283;BME280;11310;51.528;21.204;2024-01-15T08:11:55;97574.31;;;1.21;100.00
22283;BME280;11310;51.528;21.204;2024-01-15T08:14:29;97580.47;;;1.19;100.00
22283;BME280;11310;51.528;21.204;2024-01-15T08:16:58;97567.56;;;1.19;100.00
22283;BME280;11310;51.528;21.204;2024-01-15T08:19:28;97565.66;;;1.22;100.00
22283;BME280;11310;51.528;21.204;2024-01-15T08:21:57;97572.47;;;1.23;100.00
22283;BME280;11310;51.528;21.204;2024-01-15T08:24:26;97580.41;;;1.20;100.00
22283;BME280;11310;51.528;21.204;2024-01-15T08:26:55;97581.06;;;1.24;100.00
22283;BME280;11310;51.528;21.204;2024-01-15T08:29:26;97569.75;;;1.26;100.00
22283;BME280;11310;51.528;21.204;2024-01-15T08:31:56;97588.50;;;1.30;100.00
22283;BME280;11310;51.528;21.204;2024-01-15T08:34:27;97574.78;;;1.29;100.00
22283;BME280;11310;51.528;21.204;2024-01-15T08:36:58;97579.88;;;1.31;100.00
22283;BME280;11310;51.528;21.204;2024-01-15T08:39:30;97579.16;;;1.27;100.00
22283;BME280;11310;51.528;21.204;2024-01-15T08:42:03;97588.63;;;1.28;100.00
22283;BME280;11310;51.528;21.204;2024-01-15T08:44:32;97586.03;;;1.28;100.00
22283;BME280;11310;51.528;21.204;2024-01-15T08:47:05;97579.03;;;1.30;100.00
22283;BME280;11310;51.528;21.204;2024-01-15T08:49:34;97584.28;;;1.29;100.00
22283;BME280;11310;51.528;21.204;2024-01-15T08:52:04;97595.50;;;1.28;100.00
22283;BME280;11310;51.528;21.204;2024-01-15T08:54:32;97592.00;;;1.29;100.00
22283;BME280;11310;51.528;21.204;2024-01-15T08:57:00;97593.69;;;1.30;100.00
22283;BME280;11310;51.528;21.204;2024-01-15T08:59:29;97582.53;;;1.29;100.00
22283;BME280;11310;51.528;21.204;2024-01-15T09:02:00;97597.31;;;1.26;100.00
22283;BME280;11310;51.528;21.204;2024-01-15T09:04:31;97594.53;;;1.30;100.00
22283;BME280;11310;51.528;21.204;2024-01-15T09:07:00;97583.97;;;1.35;100.00
22283;BME280;11310;51.528;21.204;2024-01-15T09:09:32;97584.44;;;1.43;100.00
22283;BME280;11310;51.528;21.204;2024-01-15T09:12:01;97588.34;;;1.51;100.00
22283;BME280;11310;51.528;21.204;2024-01-15T09:14:30;97596.75;;;1.55;100.00
22283;BME280;11310;51.528;21.204;2024-01-15T09:17:04;97596.44;;;1.61;100.00
22283;BME280;11310;51.528;21.204;2024-01-15T09:19:35;97596.25;;;1.65;100.00
22283;BME280;11310;51.528;21.204;2024-01-15T09:22:04;97596.59;;;1.75;100.00
22283;BME280;11310;51.528;21.204;2024-01-15T09:24:33;97597.66;;;1.88;100.00
22283;BME280;11310;51.528;21.204;2024-01-15T09:27:01;97605.69;;;1.99;100.00
22283;BME280;11310;51.528;21.204;2024-01-15T09:29:31;97602.38;;;1.97;100.00
22283;BME280;11310;51.528;21.204;2024-01-15T09:32:00;97590.75;;;1.88;100.00
22283;BME280;11310;51.528;21.204;2024-01-15T09:34:30;97603.22;;;1.80;100.00
22283;BME280;11310;51.528;21.204;2024-01-15T09:37:01;97603.44;;;1.76;100.00
22283;BME280;11310;51.528;21.204;2024-01-15T09:39:31;97594.47;;;1.83;100.00
22283;BME280;11310;51.528;21.204;2024-01-15T09:42:00;97586.13;;;1.95;100.00
22283;BME280;11310;51.528;21.204;2024-01-15T09:44:31;97586.84;;;1.97;100.00
22283;BME280;11310;51.528;21.204;2024-01-15T09:47:00;97595.69;;;1.93;100.00
22283;BME280;11310;51.528;21.204;2024-01-15T09:49:30;97591.56;;;1.89;100.00
22283;BME280;11310;51.528;21.204;2024-01-15T09:52:01;97588.63;;;1.79;100.00
22283;BME280;11310;51.528;21.204;2024-01-15T09:54:38;97597.59;;;1.72;100.00
22283;BME280;11310;51.528;21.204;2024-01-15T09:57:11;97592.66;;;1.68;100.00
22283;BME280;11310;51.528;21.204;2024-01-15T09:59:42;97572.75;;;1.70;100.00
22283;BME280;11310;51.528;21.204;2024-01-15T10:02:13;97578.69;;;1.72;100.00
22283;BME280;11310;51.528;21.204;2024-01-15T10:04:47;97579.13;;;1.80;100.00
22283;BME280;11310;51.528;21.204;2024-01-15T10:07:18;97575.00;;;1.93;100.00
22283;BME280;11310;51.528;21.204;2024-01-15T10:09:53;97577.25;;;1.99;100.00
22283;BME280;11310;51.528;21.204;2024-01-15T10:12:23;97580.56;;;2.02;100.00
22283;BME280;11310;51.528;21.204;2024-01-15T10:14:57;97576.06;;;2.06;100.00
22283;BME280;11310;51.528;21.204;2024-01-15T10:17:26;97573.72;;;2.17;100.00
22283;BME280;11310;51.528;21.204;2024-01-15T10:19:57;97569.94;;;2.24;100.00
22283;BME280;11310;51.528;21.204;2024-01-15T10:22:32;97567.59;;;2.35;100.00
22283;BME280;11310;51.528;21.204;2024-01-15T10:25:01;97570.38;;;2.32;100.00
22283;BME280;11310;51.528;21.204;2024-01-15T10:27:31;97570.16;;;2.19;100.00
22283;BME280;11310;51.528;21.204;2024-01-15T10:30:01;97564.91;;;2.21;100.00
22283;BME280;11310;51.528;21.204;2024-01-15T10:32:31;97562.44;;;2.35;100.00
22283;BME280;11310;51.528;21.204;2024-01-15T10:35:00;97571.06;;;2.51;100.00
22283;BME280;11310;51.528;21.204;2024-01-15T10:37:32;97577.50;;;2.59;100.00
22283;BME280;11310;51.528;21.204;2024-01-15T10:40:02;97563.91;;;2.56;100.00
22283;BME280;11310;51.528;21.204;2024-01-15T10:42:33;97548.38;;;2.56;100.00
22283;BME280;11310;51.528;21.204;2024-01-15T10:45:02;97560.31;;;2.58;100.00
22283;BME280;11310;51.528;21.204;2024-01-15T10:47:34;97566.47;;;2.56;100.00
22283;BME280;11310;51.528;21.204;2024-01-15T10:50:06;97562.22;;;2.55;100.00
22283;BME280;11310;51.528;21.204;2024-01-15T10:52:39;97562.97;;;2.57;100.00
22283;BME280;11310;51.528;21.204;2024-01-15T10:55:09;97541.13;;;2.62;100.00
22283;BME280;11310;51.528;21.204;2024-01-15T10:57:48;97557.16;;;2.69;100.00
22283;BME280;11310;51.528;21.204;2024-01-15T11:00:22;97561.97;;;2.75;100.00
22283;BME280;11310;51.528;21.204;2024-01-15T11:02:53;97555.13;;;2.74;100.00
22283;BME280;11310;51.528;21.204;2024-01-15T11:05:23;97564.56;;;2.75;100.00
22283;BME280;11310;51.528;21.204;2024-01-15T11:07:56;97560.13;;;2.77;100.00
22283;BME280;11310;51.528;21.204;2024-01-15T11:10:41;97551.47;;;2.78;100.00
22283;BME280;11310;51.528;21.204;2024-01-15T11:13:14;97558.91;;;2.84;100.00
22283;BME280;11310;51.528;21.204;2024-01-15T11:15:59;97553.78;;;2.82;100.00
22283;BME280;11310;51.528;21.204;2024-01-15T11:18:30;97546.28;;;2.78;100.00
22283;BME280;11310;51.528;21.204;2024-01-15T11:21:24;97550.47;;;2.80;100.00
22283;BME280;11310;51.528;21.204;2024-01-15T11:23:58;97555.16;;;2.89;100.00
22283;BME280;11310;51.528;21.204;2024-01-15T11:26:35;97557.31;;;2.97;100.00
22283;BME280;11310;51.528;21.204;2024-01-15T11:29:06;97535.72;;;3.12;100.00
22283;BME280;11310;51.528;21.204;2024-01-15T11:32:06;97541.91;;;3.25;100.00
22283;BME280;11310;51.528;21.204;2024-01-15T11:34:57;97533.38;;;3.23;100.00
22283;BME280;11310;51.528;21.204;2024-01-15T11:37:29;97528.38;;;3.20;100.00
22283;BME280;11310;51.528;21.204;2024-01-15T11:40:03;97540.66;;;3.16;100.00
22283;BME280;11310;51.528;21.204;2024-01-15T11:42:31;97533.38;;;3.23;100.00
22283;BME280;11310;51.528;21.204;2024-01-15T11:45:04;97541.91;;;3.25;100.00
22283;BME280;11310;51.528;21.204;2024-01-15T11:50:43;97550.91;;;3.18;100.00
22283;BME280;11310;51.528;21.204;2024-01-15T11:53:27;97544.44;;;3.11;100.00
22283;BME280;11310;51.528;21.204;2024-01-15T11:56:01;97542.25;;;3.03;100.00
22283;BME280;11310;51.528;21.204;2024-01-15T11:58:34;97549.53;;;2.97;100.00
22283;BME280;11310;51.528;21.204;2024-01-15T12:01:04;97551.28;;;2.96;100.00
22283;BME280;11310;51.528;21.204;2024-01-15T12:03:35;97553.13;;;2.94;100.00
22283;BME280;11310;51.528;21.204;2024-01-15T12:06:05;97549.69;;;2.94;100.00
22283;BME280;11310;51.528;21.204;2024-01-15T12:08:40;97550.97;;;3.02;100.00
22283;BME280;11310;51.528;21.204;2024-01-15T12:11:13;97543.91;;;3.20;100.00
22283;BME280;11310;51.528;21.204;2024-01-15T12:13:44;97538.22;;;3.29;100.00
22283;BME280;11310;51.528;21.204;2024-01-15T12:16:15;97546.41;;;3.21;100.00
22283;BME280;11310;51.528;21.204;2024-01-15T12:18:43;97550.78;;;3.05;100.00
22283;BME280;11310;51.528;21.204;2024-01-15T12:21:13;97546.88;;;2.98;100.00
22283;BME280;11310;51.528;21.204;2024-01-15T12:23:46;97552.38;;;2.92;100.00
22283;BME280;11310;51.528;21.204;2024-01-15T12:26:16;97545.94;;;2.84;100.00
22283;BME280;11310;51.528;21.204;2024-01-15T12:28:46;97553.06;;;2.80;100.00
22283;BME280;11310;51.528;21.204;2024-01-15T12:31:15;97540.63;;;2.71;100.00
22283;BME280;11310;51.528;21.204;2024-01-15T12:33:44;97533.09;;;2.67;100.00
22283;BME280;11310;51.528;21.204;2024-01-15T12:36:13;97536.03;;;2.61;100.00
22283;BME280;11310;51.528;21.204;2024-01-15T12:38:44;97542.94;;;2.60;100.00
22283;BME280;11310;51.528;21.204;2024-01-15T12:41:12;97547.03;;;2.64;100.00
22283;BME280;11310;51.528;21.204;2024-01-15T12:43:44;97544.44;;;2.64;100.00
22283;BME280;11310;51.528;21.204;2024-01-15T12:46:18;97559.31;;;2.61;100.00
22283;BME280;11310;51.528;21.204;2024-01-15T12:48:47;97549.69;;;2.63;100.00
22283;BME280;11310;51.528;21.204;2024-01-15T12:51:16;97550.31;;;2.68;100.00
22283;BME280;11310;51.528;21.204;2024-01-15T12:53:44;97546.59;;;2.72;100.00
22283;BME280;11310;51.528;21.204;2024-01-15T12:56:16;97546.22;;;2.79;100.00
22283;BME280;11310;51.528;21.204;2024-01-15T12:58:48;97532.28;;;2.82;100.00
22283;BME280;11310;51.528;21.204;2024-01-15T13:01:16;97540.63;;;2.87;100.00
22283;BME280;11310;51.528;21.204;2024-01-15T13:03:45;97538.75;;;2.89;100.00
22283;BME280;11310;51.528;21.204;2024-01-15T13:06:14;97537.09;;;2.88;100.00
22283;BME280;11310;51.528;21.204;2024-01-15T13:08:42;97542.94;;;2.76;100.00